createdAt,value
2023-04-16T00:02:14.773Z,7.50
2023-04-16T00:04:42.116Z,6.60
2023-04-16T00:07:09.367Z,8.00
2023-04-16T00:09:36.500Z,8.20
2023-04-16T00:12:04.272Z,5.60
2023-04-16T00:14:31.369Z,7.90
2023-04-16T00:16:58.553Z,29.40
2023-04-16T00:19:25.722Z,10.20
2023-04-16T00:21:52.910Z,7.00
2023-04-16T00:24:20.054Z,10.80
2023-04-16T00:26:47.225Z,8.70
2023-04-16T00:29:15.072Z,10.60
2023-04-16T00:31:42.196Z,19.90
2023-04-16T00:34:09.319Z,17.70
2023-04-16T00:36:36.594Z,12.90
2023-04-16T00:39:03.751Z,13.40
2023-04-16T00:41:30.998Z,9.00
2023-04-16T00:43:58.105Z,8.70
2023-04-16T00:46:26.099Z,12.00
2023-04-16T00:48:55.522Z,10.20
2023-04-16T00:51:22.914Z,7.90
2023-04-16T00:53:50.827Z,5.40
2023-04-16T00:56:18.340Z,11.00
2023-04-16T00:58:45.633Z,7.10
2023-04-16T01:01:14.403Z,6.10
2023-04-16T01:03:47.508Z,11.60
2023-04-16T01:06:16.849Z,7.40
2023-04-16T01:08:44.539Z,8.40
2023-04-16T01:11:12.266Z,6.10
2023-04-16T01:13:39.956Z,11.30
2023-04-16T01:16:11.341Z,9.70
2023-04-16T01:18:39.407Z,10.70
2023-04-16T01:21:06.939Z,6.50
2023-04-16T01:23:34.218Z,9.80
2023-04-16T01:26:02.614Z,6.00
2023-04-16T01:28:29.753Z,10.00
2023-04-16T01:30:56.844Z,7.20
2023-04-16T01:33:45.529Z,7.20
2023-04-16T01:36:12.765Z,6.30
2023-04-16T01:38:40.003Z,11.00
2023-04-16T01:41:07.139Z,11.00
2023-04-16T01:43:35.612Z,7.80
2023-04-16T01:46:15.581Z,8.50
2023-04-16T01:48:43.201Z,16.20
2023-04-16T01:51:10.334Z,20.30
2023-04-16T01:53:37.571Z,11.60
2023-04-16T01:56:05.151Z,22.80
2023-04-16T01:58:33.981Z,7.40
2023-04-16T02:01:01.291Z,8.90
2023-04-16T02:03:28.925Z,7.50
2023-04-16T02:05:56.086Z,7.50
2023-04-16T02:08:23.464Z,7.70
2023-04-16T02:10:50.884Z,8.10
2023-04-16T02:13:18.110Z,7.40
2023-04-16T02:15:48.167Z,7.20
2023-04-16T02:18:18.708Z,12.50
2023-04-16T02:20:47.460Z,8.50
2023-04-16T02:23:15.182Z,5.70
2023-04-16T02:25:43.670Z,6.60
2023-04-16T02:28:13.463Z,6.80
2023-04-16T02:30:41.592Z,5.30
2023-04-16T02:33:10.668Z,5.30
2023-04-16T02:35:40.507Z,6.30
2023-04-16T02:38:08.558Z,8.50
2023-04-16T02:40:36.102Z,6.60
2023-04-16T02:43:03.409Z,4.60
2023-04-16T02:45:31.764Z,6.50
2023-04-16T02:48:00.048Z,4.80
2023-04-16T02:50:27.468Z,6.60
2023-04-16T02:52:54.638Z,6.40
2023-04-16T02:55:21.864Z,11.30
2023-04-16T02:57:49.091Z,5.90
2023-04-16T03:00:16.477Z,4.20
2023-04-16T03:02:43.845Z,7.00
2023-04-16T03:05:12.431Z,6.70
2023-04-16T03:07:40.850Z,9.30
2023-04-16T03:10:09.100Z,6.70
2023-04-16T03:12:36.390Z,6.20
2023-04-16T03:15:07.482Z,10.10
2023-04-16T03:17:34.665Z,13.50
2023-04-16T03:20:02.003Z,6.00
2023-04-16T03:22:29.122Z,7.20
2023-04-16T03:24:56.398Z,7.00
2023-04-16T03:27:24.021Z,11.60
2023-04-16T03:29:51.657Z,8.70
2023-04-16T03:32:19.064Z,8.00
2023-04-16T03:34:46.605Z,8.40
2023-04-16T03:37:13.813Z,9.50
2023-04-16T03:39:41.077Z,5.80
2023-04-16T03:42:09.509Z,8.70
2023-04-16T03:44:36.674Z,12.50
2023-04-16T03:47:03.791Z,6.60
2023-04-16T03:49:30.980Z,6.30
2023-04-16T03:51:58.415Z,8.60
2023-04-16T03:54:25.931Z,5.10
2023-04-16T03:56:59.709Z,5.70
2023-04-16T03:59:26.872Z,11.00
2023-04-16T04:01:54.192Z,9.50
2023-04-16T04:04:21.510Z,10.20
2023-04-16T04:06:48.808Z,8.70
2023-04-16T04:09:16.393Z,6.00
2023-04-16T04:11:43.492Z,8.00
2023-04-16T04:14:10.797Z,6.70
2023-04-16T04:16:38.106Z,6.00
2023-04-16T04:19:05.222Z,6.70
2023-04-16T04:21:32.779Z,6.70
2023-04-16T04:24:00.017Z,6.40
2023-04-16T04:26:29.645Z,9.40
2023-04-16T04:28:56.950Z,15.70
2023-04-16T04:31:24.186Z,12.10
2023-04-16T04:33:51.322Z,10.40
2023-04-16T04:36:18.755Z,10.40
2023-04-16T04:38:45.889Z,6.50
2023-04-16T04:41:13.158Z,14.40
2023-04-16T04:43:40.276Z,9.70
2023-04-16T04:46:07.832Z,6.40
2023-04-16T04:48:35.485Z,8.70
2023-04-16T04:51:05.287Z,9.20
2023-04-16T04:53:32.917Z,7.80
2023-04-16T04:56:09.253Z,7.40
2023-04-16T04:58:40.807Z,6.70
2023-04-16T05:01:08.008Z,5.30
2023-04-16T05:03:35.229Z,6.60
2023-04-16T05:06:02.421Z,7.60
2023-04-16T05:08:29.572Z,6.00
2023-04-16T05:10:56.689Z,9.90
2023-04-16T05:13:23.789Z,7.70
2023-04-16T05:15:50.976Z,10.70
2023-04-16T05:18:18.081Z,7.20
2023-04-16T05:20:45.357Z,9.80
2023-04-16T05:23:12.489Z,9.40
2023-04-16T05:25:39.590Z,9.10
2023-04-16T05:28:06.765Z,12.00
2023-04-16T05:30:33.841Z,6.90
2023-04-16T05:33:01.212Z,6.70
2023-04-16T05:35:28.383Z,5.60
2023-04-16T05:37:55.571Z,6.80
2023-04-16T05:40:22.700Z,6.70
2023-04-16T05:42:49.842Z,5.50
2023-04-16T05:45:16.898Z,14.50
2023-04-16T05:47:44.396Z,30.10
2023-04-16T05:50:11.626Z,24.50
2023-04-16T05:52:39.184Z,26.10
2023-04-16T05:55:07.259Z,17.20
2023-04-16T05:57:34.372Z,25.10
2023-04-16T06:00:01.493Z,31.70
2023-04-16T06:02:30.752Z,24.40
2023-04-16T06:04:57.971Z,21.10
2023-04-16T06:07:25.121Z,7.90
2023-04-16T06:09:52.250Z,7.50
2023-04-16T06:12:19.404Z,8.60
2023-04-16T06:14:46.436Z,10.90
2023-04-16T06:17:13.536Z,12.90
2023-04-16T06:19:40.893Z,15.90
2023-04-16T06:22:07.975Z,12.50
2023-04-16T06:24:35.046Z,13.50
2023-04-16T06:27:02.955Z,12.90
2023-04-16T06:29:40.572Z,14.90
2023-04-16T06:32:08.842Z,11.70
2023-04-16T06:34:36.138Z,22.00
2023-04-16T06:37:03.452Z,15.10
2023-04-16T06:39:31.089Z,19.00
2023-04-16T06:41:58.246Z,11.20
2023-04-16T06:44:25.369Z,12.50
2023-04-16T06:46:52.788Z,14.20
2023-04-16T06:49:19.926Z,10.20
2023-04-16T06:51:47.076Z,13.00
2023-04-16T06:54:14.312Z,14.60
2023-04-16T06:56:41.448Z,13.20
2023-04-16T06:59:08.732Z,11.20
2023-04-16T07:01:36.507Z,13.30
2023-04-16T07:04:04.420Z,11.10
2023-04-16T07:06:32.187Z,10.40
2023-04-16T07:08:59.348Z,13.40
2023-04-16T07:11:27.298Z,8.90
2023-04-16T07:13:54.472Z,9.00
2023-04-16T07:16:21.690Z,16.50
2023-04-16T07:18:48.909Z,12.00
2023-04-16T07:21:16.058Z,7.60
2023-04-16T07:23:43.499Z,27.00
2023-04-16T07:26:11.767Z,21.40
2023-04-16T07:28:38.860Z,25.20
2023-04-16T07:31:06.178Z,16.40
2023-04-16T07:33:33.879Z,16.00
2023-04-16T07:36:01.050Z,10.40
2023-04-16T07:38:28.134Z,14.90
2023-04-16T07:40:56.950Z,17.10
2023-04-16T07:43:24.136Z,11.60
2023-04-16T07:45:51.714Z,9.50
2023-04-16T07:48:18.812Z,8.40
2023-04-16T07:50:46.150Z,12.50
2023-04-16T07:53:13.300Z,11.20
2023-04-16T07:55:40.439Z,9.80
2023-04-16T07:58:09.577Z,9.40
2023-04-16T08:00:36.712Z,11.30
2023-04-16T08:03:04.371Z,11.40
2023-04-16T08:05:31.692Z,8.90
2023-04-16T08:07:58.788Z,8.70
2023-04-16T08:10:26.086Z,10.60
2023-04-16T08:12:53.576Z,13.30
2023-04-16T08:15:20.620Z,15.00
2023-04-16T08:17:47.689Z,11.20
2023-04-16T08:20:17.620Z,10.60
2023-04-16T08:22:46.864Z,11.00
2023-04-16T08:25:14.637Z,10.20
2023-04-16T08:27:41.787Z,9.30
2023-04-16T08:30:08.900Z,13.70
2023-04-16T08:32:36.047Z,16.20
2023-04-16T08:35:03.352Z,12.40
2023-04-16T08:37:30.513Z,46.00
2023-04-16T08:39:57.604Z,22.00
2023-04-16T08:42:31.578Z,12.00
2023-04-16T08:45:11.620Z,10.80
2023-04-16T08:47:39.024Z,13.00
2023-04-16T08:50:06.647Z,9.30
2023-04-16T08:52:38.206Z,11.30
2023-04-16T08:55:12.718Z,11.90
2023-04-16T08:58:01.435Z,10.60
2023-04-16T09:00:31.706Z,10.20
2023-04-16T09:02:59.390Z,15.50
2023-04-16T09:05:27.830Z,13.10
2023-04-16T09:07:55.010Z,10.00
2023-04-16T09:10:22.312Z,10.80
2023-04-16T09:12:49.889Z,14.60
2023-04-16T09:15:16.967Z,12.60
2023-04-16T09:17:44.302Z,20.80
2023-04-16T09:20:13.123Z,14.70
2023-04-16T09:22:40.566Z,14.40
2023-04-16T09:25:08.301Z,18.60
2023-04-16T09:27:36.674Z,14.90
2023-04-16T09:30:22.990Z,11.60
2023-04-16T09:32:51.758Z,18.40
2023-04-16T09:35:21.966Z,34.40
2023-04-16T09:37:57.093Z,22.70
2023-04-16T09:40:26.359Z,41.40
2023-04-16T09:42:57.740Z,39.70
2023-04-16T09:45:24.962Z,31.60
2023-04-16T09:47:52.243Z,36.20
2023-04-16T09:50:20.703Z,39.00
2023-04-16T09:52:51.505Z,27.60
2023-04-16T09:55:27.158Z,19.90
2023-04-16T09:58:01.074Z,12.50
2023-04-16T10:00:30.802Z,21.40
2023-04-16T10:03:05.812Z,14.90
2023-04-16T10:05:33.077Z,11.40
2023-04-16T10:08:02.197Z,20.20
2023-04-16T10:10:29.854Z,15.30
2023-04-16T10:12:58.021Z,10.70
2023-04-16T10:15:25.880Z,10.90
2023-04-16T10:17:54.246Z,21.30
2023-04-16T10:20:24.047Z,95.50
2023-04-16T10:22:51.456Z,42.70
2023-04-16T10:25:18.943Z,23.00
2023-04-16T10:27:46.703Z,21.70
2023-04-16T10:30:16.763Z,25.60
2023-04-16T10:32:46.586Z,22.20
2023-04-16T10:35:20.188Z,19.30
2023-04-16T10:37:47.603Z,29.70
2023-04-16T10:40:27.895Z,20.40
2023-04-16T10:42:56.644Z,23.00
2023-04-16T10:45:29.909Z,17.80
2023-04-16T10:47:59.579Z,18.90
2023-04-16T10:50:35.166Z,18.40
2023-04-16T10:55:57.544Z,19.40
2023-04-16T10:58:31.629Z,14.60
2023-04-16T11:01:07.271Z,12.00
2023-04-16T11:06:26.271Z,15.60
2023-04-16T11:08:55.296Z,24.80
2023-04-16T11:11:23.104Z,17.10
2023-04-16T11:13:54.941Z,11.80
2023-04-16T11:16:22.123Z,13.10
2023-04-16T11:18:51.605Z,13.00
2023-04-16T11:21:20.203Z,22.40
2023-04-16T11:23:52.203Z,19.60
2023-04-16T11:26:27.378Z,26.40
2023-04-16T11:29:00.278Z,29.70
2023-04-16T11:31:27.527Z,29.00
2023-04-16T11:33:56.198Z,19.60
2023-04-16T11:36:24.865Z,13.30
2023-04-16T11:39:02.450Z,15.10
2023-04-16T11:43:56.564Z,19.50
2023-04-16T11:46:27.869Z,13.30
2023-04-16T11:48:56.253Z,11.60
2023-04-16T11:51:24.135Z,12.30
2023-04-16T11:53:56.381Z,11.80
2023-04-16T11:56:28.588Z,17.20
2023-04-16T11:59:13.425Z,12.70
2023-04-16T12:01:42.430Z,12.10
2023-04-16T12:04:09.931Z,15.20
2023-04-16T12:06:37.442Z,18.70
2023-04-16T12:09:26.355Z,15.30
2023-04-16T12:11:53.770Z,12.30
2023-04-16T12:14:21.648Z,11.60
2023-04-16T12:16:48.874Z,11.00
2023-04-16T12:19:16.104Z,12.00
2023-04-16T12:21:46.083Z,11.40
2023-04-16T12:24:15.516Z,11.90
2023-04-16T12:26:48.796Z,13.70
2023-04-16T12:29:17.408Z,40.00
2023-04-16T12:31:44.607Z,25.00
2023-04-16T12:34:11.844Z,15.10
2023-04-16T12:36:39.029Z,35.60
2023-04-16T12:39:06.221Z,18.80
2023-04-16T12:41:36.934Z,86.30
2023-04-16T12:44:12.042Z,94.80
2023-04-16T12:46:40.491Z,55.30
2023-04-16T12:49:09.440Z,20.80
2023-04-16T12:51:37.861Z,18.00
2023-04-16T12:54:10.375Z,15.80
2023-04-16T12:56:37.414Z,14.40
2023-04-16T12:59:04.999Z,22.30
2023-04-16T13:01:32.192Z,23.90
2023-04-16T13:03:59.495Z,23.00
2023-04-16T13:06:26.800Z,29.90
2023-04-16T13:08:53.970Z,28.40
2023-04-16T13:11:21.202Z,26.20
2023-04-16T13:13:48.316Z,24.90
2023-04-16T13:16:15.507Z,21.20
2023-04-16T13:18:42.553Z,34.90
2023-04-16T13:21:09.992Z,34.60
2023-04-16T13:23:37.074Z,85.80
2023-04-16T13:26:04.334Z,54.60
2023-04-16T13:28:31.489Z,56.90
2023-04-16T13:30:58.974Z,349.50
2023-04-16T13:33:26.614Z,456.50
2023-04-16T13:35:53.917Z,314.30
2023-04-16T13:38:21.279Z,145.90
2023-04-16T13:40:48.446Z,71.40
2023-04-16T13:43:17.601Z,60.00
2023-04-16T13:45:44.970Z,45.00
2023-04-16T13:48:12.221Z,60.80
2023-04-16T13:50:39.348Z,47.70
2023-04-16T13:53:06.486Z,59.40
2023-04-16T13:55:33.589Z,57.20
2023-04-16T13:58:00.805Z,39.10
2023-04-16T14:00:28.057Z,32.80
2023-04-16T14:02:55.381Z,25.30
2023-04-16T14:05:25.142Z,17.90
2023-04-16T14:07:53.732Z,17.80
2023-04-16T14:10:21.019Z,34.00
2023-04-16T14:12:48.251Z,44.50
2023-04-16T14:15:15.474Z,44.90
2023-04-16T14:17:44.250Z,68.00
2023-04-16T14:20:13.497Z,48.70
2023-04-16T14:22:42.521Z,24.30
2023-04-16T14:25:09.742Z,18.20
2023-04-16T14:27:36.865Z,17.40
2023-04-16T14:30:05.106Z,25.50
2023-04-16T14:32:32.366Z,15.30
2023-04-16T14:34:59.501Z,14.30
2023-04-16T14:37:26.702Z,18.10
2023-04-16T14:39:54.165Z,71.90
2023-04-16T14:42:22.559Z,24.80
2023-04-16T14:44:49.799Z,47.20
2023-04-16T14:47:16.979Z,26.40
2023-04-16T14:49:44.057Z,32.70
2023-04-16T14:52:11.674Z,35.90
2023-04-16T14:54:38.752Z,24.30
2023-04-16T14:57:06.074Z,25.10
2023-04-16T14:59:33.187Z,35.70
2023-04-16T15:02:00.327Z,35.20
2023-04-16T15:04:27.878Z,29.00
2023-04-16T15:06:58.932Z,26.10
2023-04-16T15:09:27.566Z,24.60
2023-04-16T15:11:54.821Z,25.30
2023-04-16T15:14:21.970Z,17.20
2023-04-16T15:16:49.575Z,20.30
2023-04-16T15:19:16.806Z,24.10
2023-04-16T15:21:44.081Z,16.30
2023-04-16T15:24:11.600Z,16.40
2023-04-16T15:26:39.124Z,18.90
2023-04-16T15:29:06.396Z,18.20
2023-04-16T15:31:33.726Z,18.30
2023-04-16T15:34:01.628Z,12.30
2023-04-16T15:36:28.825Z,19.10
2023-04-16T15:38:55.994Z,12.90
2023-04-16T15:41:23.293Z,12.50
2023-04-16T15:43:50.558Z,14.10
2023-04-16T15:46:17.720Z,12.70
2023-04-16T15:48:44.938Z,9.70
2023-04-16T15:51:12.293Z,17.50
2023-04-16T15:53:39.584Z,26.50
2023-04-16T15:56:06.718Z,32.50
2023-04-16T15:58:33.893Z,44.20
2023-04-16T16:01:00.975Z,57.40
2023-04-16T16:03:28.311Z,120.50
2023-04-16T16:05:57.013Z,42.80
2023-04-16T16:08:26.124Z,62.70
2023-04-16T16:10:53.254Z,39.00
2023-04-16T16:13:20.245Z,24.00
2023-04-16T16:15:47.390Z,18.30
2023-04-16T16:18:14.441Z,13.90
2023-04-16T16:20:41.665Z,55.90
2023-04-16T16:23:08.765Z,28.70
2023-04-16T16:25:36.024Z,23.50
2023-04-16T16:28:06.287Z,19.20
2023-04-16T16:30:33.907Z,22.50
2023-04-16T16:33:01.020Z,17.30
2023-04-16T16:35:28.321Z,15.90
2023-04-16T16:37:57.319Z,10.90
2023-04-16T16:40:24.600Z,10.10
2023-04-16T16:42:51.879Z,9.70
2023-04-16T16:45:19.245Z,10.80
2023-04-16T16:47:46.961Z,12.10
2023-04-16T16:50:14.104Z,12.90
2023-04-16T16:52:41.272Z,19.30
2023-04-16T16:55:10.992Z,18.20
2023-04-16T16:57:38.964Z,20.60
2023-04-16T17:00:16.327Z,12.90
2023-04-16T17:02:43.913Z,32.60
2023-04-16T17:05:12.694Z,24.20
2023-04-16T17:07:39.933Z,21.20
2023-04-16T17:10:07.709Z,17.60
2023-04-16T17:12:35.658Z,19.40
2023-04-16T17:15:03.108Z,20.50
2023-04-16T17:17:31.731Z,23.40
2023-04-16T17:20:00.960Z,19.80
2023-04-16T17:22:28.129Z,23.90
2023-04-16T17:24:55.178Z,28.60
2023-04-16T17:27:22.280Z,25.60
2023-04-16T17:29:49.246Z,24.40
2023-04-16T17:32:16.526Z,29.50
2023-04-16T17:34:43.666Z,36.40
2023-04-16T17:37:10.737Z,34.00
2023-04-16T17:39:37.773Z,29.30
2023-04-16T17:42:04.842Z,29.70
2023-04-16T17:44:31.925Z,36.10
2023-04-16T17:46:59.120Z,34.20
2023-04-16T17:49:26.273Z,36.00
2023-04-16T17:51:54.090Z,38.80
2023-04-16T17:54:21.131Z,29.20
2023-04-16T17:56:48.321Z,22.80
2023-04-16T17:59:15.480Z,23.30
2023-04-16T18:01:42.708Z,20.00
2023-04-16T18:04:10.584Z,19.20
2023-04-16T18:06:38.267Z,23.00
2023-04-16T18:09:05.895Z,29.30
2023-04-16T18:11:33.190Z,29.00
2023-04-16T18:14:00.553Z,21.20
2023-04-16T18:16:27.777Z,32.70
2023-04-16T18:18:55.044Z,42.30
2023-04-16T18:21:22.236Z,32.80
2023-04-16T18:23:49.300Z,32.00
2023-04-16T18:26:20.434Z,47.50
2023-04-16T18:28:48.183Z,41.30
2023-04-16T18:31:15.455Z,58.60
2023-04-16T18:33:54.010Z,53.50
2023-04-16T18:36:23.233Z,78.00
2023-04-16T18:39:00.822Z,93.60
2023-04-16T18:41:29.886Z,132.80
2023-04-16T18:43:57.165Z,211.60
2023-04-16T18:46:25.295Z,231.90
2023-04-16T18:48:52.676Z,268.60
2023-04-16T18:51:19.817Z,202.50
2023-04-16T18:53:47.056Z,141.20
2023-04-16T18:56:14.185Z,73.00
2023-04-16T18:58:41.407Z,64.10
2023-04-16T19:01:11.378Z,67.60
2023-04-16T19:03:39.383Z,54.50
2023-04-16T19:06:06.673Z,63.20
2023-04-16T19:08:34.018Z,60.30
2023-04-16T19:11:01.187Z,62.20
2023-04-16T19:13:30.354Z,40.70
2023-04-16T19:15:59.640Z,35.40
2023-04-16T19:18:27.133Z,24.10
2023-04-16T19:21:01.259Z,20.90
2023-04-16T19:23:29.176Z,39.80
2023-04-16T19:25:57.088Z,73.00
2023-04-16T19:28:24.899Z,35.70
2023-04-16T19:30:52.961Z,27.50
2023-04-16T19:33:20.057Z,42.20
2023-04-16T19:35:47.419Z,38.10
2023-04-16T19:38:14.709Z,27.30
2023-04-16T19:40:46.809Z,49.70
2023-04-16T19:43:14.078Z,30.40
2023-04-16T19:45:53.477Z,24.30
2023-04-16T19:48:21.558Z,43.10
2023-04-16T19:50:48.856Z,37.40
2023-04-16T19:53:17.344Z,45.90
2023-04-16T19:55:44.561Z,58.80
2023-04-16T19:58:11.847Z,48.50
2023-04-16T20:00:41.173Z,42.10
2023-04-16T20:03:08.472Z,34.60
2023-04-16T20:05:35.750Z,21.60
2023-04-16T20:08:02.814Z,32.60
2023-04-16T20:10:31.613Z,44.10
2023-04-16T20:12:59.262Z,30.10
2023-04-16T20:15:26.462Z,31.00
2023-04-16T20:17:53.722Z,31.50
2023-04-16T20:20:22.763Z,19.00
2023-04-16T20:22:50.059Z,18.40
2023-04-16T20:25:19.222Z,41.50
2023-04-16T20:27:46.548Z,312.20
2023-04-16T20:30:15.138Z,304.60
2023-04-16T20:32:42.526Z,1062.40
2023-04-16T20:35:11.646Z,1359.30
2023-04-16T20:37:39.900Z,1286.00
2023-04-16T20:40:09.046Z,1133.70
2023-04-16T20:42:36.315Z,1469.00
2023-04-16T20:45:03.548Z,1371.80
2023-04-16T20:47:30.609Z,1123.80
2023-04-16T20:49:58.320Z,1067.90
2023-04-16T20:52:25.464Z,463.70
2023-04-16T20:54:52.620Z,269.10
2023-04-16T20:57:19.754Z,167.90
2023-04-16T20:59:46.865Z,154.70
2023-04-16T21:02:14.282Z,282.60
2023-04-16T21:04:41.869Z,188.70
2023-04-16T21:07:09.074Z,244.30
2023-04-16T21:09:36.355Z,107.00
2023-04-16T21:12:03.639Z,48.70
2023-04-16T21:14:30.779Z,43.50
2023-04-16T21:16:57.935Z,29.60
2023-04-16T21:19:25.102Z,28.00
2023-04-16T21:21:52.307Z,17.20
2023-04-16T21:24:19.342Z,15.10
2023-04-16T21:26:46.484Z,18.40
2023-04-16T21:29:13.771Z,13.90
2023-04-16T21:31:41.200Z,15.90
2023-04-16T21:34:08.455Z,13.50
2023-04-16T21:36:35.638Z,22.70
2023-04-16T21:39:02.777Z,24.60
2023-04-16T21:41:29.887Z,21.90
2023-04-16T21:43:57.045Z,31.90
2023-04-16T21:46:25.506Z,28.20
2023-04-16T21:48:52.672Z,21.10
2023-04-16T21:51:20.243Z,19.70
2023-04-16T21:53:47.405Z,20.50
2023-04-16T21:56:14.937Z,15.50
2023-04-16T21:58:42.156Z,10.50
2023-04-16T22:01:10.957Z,12.90
2023-04-16T22:03:40.628Z,12.60
2023-04-16T22:06:08.348Z,11.00
2023-04-16T22:08:35.475Z,11.10
2023-04-16T22:11:03.449Z,11.30
2023-04-16T22:13:36.503Z,12.10
2023-04-16T22:16:04.017Z,13.80
2023-04-16T22:18:34.089Z,11.50
2023-04-16T22:21:01.463Z,12.20
2023-04-16T22:23:28.673Z,12.40
2023-04-16T22:25:56.266Z,12.40
2023-04-16T22:28:23.889Z,15.10
2023-04-16T22:30:51.395Z,14.50
2023-04-16T22:33:18.687Z,19.90
2023-04-16T22:35:46.200Z,12.20
2023-04-16T22:38:13.466Z,14.60
2023-04-16T22:40:40.592Z,23.70
2023-04-16T22:43:07.897Z,24.70
2023-04-16T22:45:35.795Z,15.30
2023-04-16T22:48:02.968Z,13.20
2023-04-16T22:50:31.530Z,12.70
2023-04-16T22:52:58.880Z,24.10
2023-04-16T22:55:25.973Z,18.90
2023-04-16T22:57:53.094Z,11.70
2023-04-16T23:00:21.235Z,16.90
2023-04-16T23:02:48.385Z,14.50
2023-04-16T23:05:16.034Z,12.20
2023-04-16T23:07:43.264Z,14.00
2023-04-16T23:10:11.021Z,9.50
2023-04-16T23:12:38.229Z,13.90
2023-04-16T23:15:06.728Z,9.80
2023-04-16T23:17:35.335Z,12.10
2023-04-16T23:20:05.374Z,14.60
2023-04-16T23:22:32.582Z,15.00
2023-04-16T23:24:59.704Z,15.50
2023-04-16T23:27:26.811Z,14.90
2023-04-16T23:29:53.867Z,12.20
2023-04-16T23:32:21.034Z,12.50
2023-04-16T23:34:48.291Z,16.70
2023-04-16T23:37:15.627Z,15.50
2023-04-16T23:39:42.773Z,15.90
2023-04-16T23:42:09.985Z,10.50
2023-04-16T23:44:37.162Z,11.70
2023-04-16T23:47:04.595Z,12.30
2023-04-16T23:49:31.797Z,11.50
2023-04-16T23:51:58.964Z,10.70
2023-04-16T23:54:26.271Z,13.90
2023-04-16T23:56:53.454Z,13.10
2023-04-16T23:59:20.599Z,12.60
